Time;durP1;ratioP1;P1;durP2;ratioP2;P2;SDS_P1;SDS_P2;PMS_P1;PMS_P2;Temp;Humidity;BMP_temperature;BMP_pressure;BME280_temperature;BME280_humidity;BME280_pressure;Samples;Min_cycle;Max_cycle;Signal;HPM_P1;HPM_P2
2022/04/08 00:01:54;;;;;;;0.20;0.20;;;10.20;91.10;;;10.62;nan;99004.16;5015595;28;20620;-72
2022/04/08 00:04:21;;;;;;;0.20;0.20;;;10.30;91.60;;;10.65;nan;99011.66;5028448;28;20966;-70
2022/04/08 00:06:48;;;;;;;0.20;0.20;;;10.30;91.80;;;10.64;nan;99011.81;5013441;28;21231;-72
2022/04/08 00:09:15;;;;;;;0.30;0.30;;;10.30;91.90;;;10.63;nan;99008.38;5016022;28;21214;-68
2022/04/08 00:11:42;;;;;;;0.20;0.20;;;10.30;92.10;;;10.66;nan;99007.28;5008628;28;21010;-71
2022/04/08 00:14:09;;;;;;;0.30;0.30;;;10.30;92.10;;;10.38;nan;99009.13;5018713;28;21188;-72
2022/04/08 00:16:38;;;;;;;0.20;0.20;;;10.20;92.20;;;10.50;nan;99013.16;5028659;28;20664;-71
2022/04/08 00:19:05;;;;;;;0.20;0.20;;;10.20;92.50;;;10.57;nan;99014.22;5013125;28;21083;-74
2022/04/08 00:21:32;;;;;;;0.20;0.20;;;10.20;92.60;;;10.52;nan;99003.38;4994777;28;20650;-72
2022/04/08 00:23:59;;;;;;;0.20;0.20;;;10.20;92.70;;;10.58;nan;99017.63;5010264;28;20648;-72
2022/04/08 00:26:26;;;;;;;0.20;0.20;;;10.20;92.80;;;10.48;nan;99011.66;5009299;28;20683;-71
2022/04/08 00:28:53;;;;;;;0.20;0.20;;;10.10;92.90;;;10.56;nan;99022.19;5000040;28;21196;-74
2022/04/08 00:31:21;;;;;;;0.20;0.20;;;10.20;92.70;;;10.48;nan;99015.09;5025708;28;20632;-71
2022/04/08 00:33:48;;;;;;;0.20;0.20;;;10.10;92.90;;;10.49;nan;99024.56;5027948;28;20669;-74
2022/04/08 00:36:15;;;;;;;0.20;0.20;;;10.10;93.00;;;10.55;nan;99025.75;5009666;28;20657;-75
2022/04/08 00:38:42;;;;;;;0.20;0.20;;;10.10;92.90;;;10.40;nan;99030.66;5027472;28;20633;-71
2022/04/08 00:41:09;;;;;;;0.20;0.20;;;10.10;92.90;;;10.40;nan;99029.84;5012512;28;20637;-71
2022/04/08 00:43:38;;;;;;;0.20;0.20;;;10.10;92.90;;;10.46;nan;99048.31;4995454;28;20645;-71
2022/04/08 00:48:47;;;;;;;0.20;0.20;;;10.10;92.90;;;10.41;nan;99050.56;5082758;23;20686;-71
2022/04/08 00:51:15;;;;;;;0.20;0.20;;;10.10;93.00;;;10.31;nan;99048.97;4975686;28;20634;-73
2022/04/08 00:53:45;;;;;;;0.20;0.20;;;10.00;93.10;;;10.35;nan;99053.72;4992261;28;20719;-72
2022/04/08 00:56:13;;;;;;;0.20;0.20;;;10.00;93.30;;;10.31;nan;99055.00;4994844;28;21059;-69
2022/04/08 00:58:40;;;;;;;0.20;0.20;;;10.00;93.60;;;10.34;nan;99053.88;4975336;28;20627;-74
2022/04/08 01:01:07;;;;;;;0.20;0.20;;;10.00;93.70;;;10.35;nan;99056.34;4993243;28;20641;-71
2022/04/08 01:03:34;;;;;;;0.20;0.20;;;10.00;93.90;;;10.25;nan;99058.19;4993157;28;20634;-70
2022/04/08 01:06:01;;;;;;;0.20;0.20;;;9.90;94.10;;;10.23;nan;99057.53;4976514;28;20650;-71
2022/04/08 01:08:29;;;;;;;0.20;0.20;;;9.80;94.50;;;10.16;nan;99064.28;4996489;28;20634;-71
2022/04/08 01:10:56;;;;;;;0.20;0.20;;;9.80;94.60;;;10.06;nan;99073.91;4991969;28;20626;-71
2022/04/08 01:13:23;;;;;;;0.20;0.20;;;9.70;95.00;;;10.18;nan;99067.56;4991846;28;20708;-71
2022/04/08 01:15:50;;;;;;;0.30;0.30;;;9.80;95.00;;;10.07;nan;99078.97;4993273;28;20646;-71
2022/04/08 01:18:17;;;;;;;0.20;0.20;;;9.70;95.20;;;10.06;nan;99079.09;4993786;28;20639;-71
2022/04/08 01:20:44;;;;;;;0.20;0.20;;;9.70;95.40;;;10.14;nan;99087.88;4993167;28;20630;-71
2022/04/08 01:23:16;;;;;;;0.20;0.20;;;9.80;95.40;;;10.10;nan;99077.84;4985289;28;20641;-71
2022/04/08 01:25:43;;;;;;;0.20;0.20;;;9.80;95.50;;;10.13;nan;99088.03;4966782;28;20662;-73
2022/04/08 01:28:10;;;;;;;0.20;0.20;;;9.80;95.50;;;10.18;nan;99098.81;4993111;28;20642;-71
2022/04/08 01:30:37;;;;;;;0.20;0.20;;;9.80;95.60;;;10.02;nan;99096.81;4992914;28;20614;-71
2022/04/08 01:33:04;;;;;;;0.20;0.20;;;9.70;96.20;;;10.16;nan;99098.16;4994550;28;20736;-71
2022/04/08 01:35:31;;;;;;;0.20;0.20;;;9.80;96.10;;;10.02;nan;99103.81;4959116;28;20669;-71
2022/04/08 01:37:58;;;;;;;0.20;0.20;;;9.70;96.40;;;10.06;nan;99106.00;4991875;28;21008;-71
2022/04/08 01:40:25;;;;;;;0.20;0.20;;;9.80;96.70;;;9.90;nan;99123.22;4992647;28;20998;-71
2022/04/08 01:42:52;;;;;;;0.20;0.20;;;9.60;97.10;;;9.92;nan;99119.47;4975206;28;20634;-71
2022/04/08 01:45:19;;;;;;;0.20;0.20;;;9.60;97.40;;;9.95;nan;99120.97;4991247;28;20633;-72
2022/04/08 01:47:46;;;;;;;0.20;0.20;;;9.60;97.80;;;9.90;nan;99126.59;4974346;28;20650;-72
2022/04/08 01:50:18;;;;;;;0.20;0.20;;;9.60;98.20;;;9.88;nan;99135.56;4991889;28;20630;-73
2022/04/08 01:52:46;;;;;;;0.20;0.20;;;9.50;98.30;;;9.85;nan;99136.66;4992568;28;20673;-74
2022/04/08 01:55:14;;;;;;;0.20;0.20;;;9.50;98.90;;;9.91;nan;99141.28;4977032;28;21053;-71
2022/04/08 01:57:42;;;;;;;0.20;0.20;;;9.50;98.90;;;9.90;nan;99147.44;4974047;28;20718;-71
2022/04/08 02:00:09;;;;;;;0.20;0.20;;;9.50;99.00;;;9.88;nan;99138.97;4974862;28;20641;-71
2022/04/08 02:02:37;;;;;;;0.20;0.20;;;9.60;99.20;;;9.71;nan;99134.47;4980838;28;20637;-71
2022/04/08 02:05:04;;;;;;;0.20;0.20;;;9.50;99.60;;;9.75;nan;99146.25;4985590;28;20639;-72
2022/04/08 02:07:31;;;;;;;0.20;0.20;;;9.50;99.70;;;9.68;nan;99144.38;4973688;28;20658;-71
2022/04/08 02:09:58;;;;;;;0.20;0.20;;;9.30;99.90;;;9.56;nan;99155.91;4996690;28;20645;-71
2022/04/08 02:12:25;;;;;;;0.20;0.20;;;9.20;99.90;;;9.60;nan;99159.88;4990609;28;20663;-73
2022/04/08 02:14:54;;;;;;;0.20;0.20;;;9.20;99.90;;;9.50;nan;99161.69;4981871;28;21021;-72
2022/04/08 02:17:21;;;;;;;4.93;4.43;;;9.20;99.90;;;9.59;nan;99172.06;4997711;28;20665;-70
2022/04/08 02:19:48;;;;;;;0.20;0.20;;;9.20;99.90;;;9.52;nan;99177.97;4993005;28;20642;-72
2022/04/08 02:22:15;;;;;;;0.20;0.20;;;9.10;99.90;;;9.48;nan;99179.19;4973963;28;20611;-73
2022/04/08 02:24:42;;;;;;;0.20;0.20;;;9.10;99.90;;;9.50;nan;99178.09;4974208;28;20665;-72
2022/04/08 02:27:09;;;;;;;0.20;0.20;;;9.20;99.90;;;9.49;nan;99186.06;4975136;28;20653;-69
2022/04/08 02:29:36;;;;;;;0.50;0.50;;;9.10;99.90;;;9.47;nan;99190.56;4986619;28;21194;-74
2022/04/08 02:32:04;;;;;;;0.20;0.20;;;9.10;99.90;;;9.50;nan;99188.50;4988798;28;20638;-70
2022/04/08 02:34:31;;;;;;;0.20;0.20;;;9.10;99.90;;;9.41;nan;99194.56;4974539;28;20676;-71
2022/04/08 02:36:58;;;;;;;0.20;0.20;;;9.00;99.90;;;9.34;nan;99193.47;4989893;28;20666;-72
2022/04/08 02:39:25;;;;;;;0.20;0.20;;;8.90;99.90;;;9.36;nan;99202.78;4991750;28;20984;-72
2022/04/08 02:41:52;;;;;;;0.20;0.20;;;8.90;99.90;;;9.30;nan;99202.50;4990447;28;20642;-71
2022/04/08 02:44:19;;;;;;;0.20;0.20;;;8.90;99.90;;;9.27;nan;99201.00;4974566;28;20637;-72
2022/04/08 02:46:46;;;;;;;0.20;0.20;;;8.90;99.90;;;9.25;nan;99205.50;4991682;28;20723;-72
2022/04/08 02:49:13;;;;;;;0.20;0.20;;;8.90;99.90;;;9.24;nan;99203.84;4972894;28;21074;-71
2022/04/08 02:51:40;;;;;;;0.20;0.20;;;8.80;99.90;;;9.29;nan;99206.03;4989452;28;20685;-71
2022/04/08 02:54:07;;;;;;;0.20;0.20;;;8.90;99.90;;;9.24;nan;99213.47;4973303;28;21238;-73
2022/04/08 02:56:34;;;;;;;0.20;0.20;;;8.90;99.90;;;9.22;nan;99217.97;4955531;28;21338;-71
2022/04/08 02:59:01;;;;;;;0.20;0.20;;;8.80;99.90;;;9.15;nan;99209.91;4974456;28;21194;-72
2022/04/08 03:01:28;;;;;;;0.20;0.20;;;8.80;99.90;;;9.19;nan;99226.03;4974090;28;20634;-71
2022/04/08 03:03:55;;;;;;;0.20;0.20;;;8.80;99.90;;;9.19;nan;99226.88;4991309;28;20645;-73
2022/04/08 03:06:22;;;;;;;0.20;0.20;;;8.80;99.90;;;9.11;nan;99229.34;4991474;28;20685;-71
2022/04/08 03:08:49;;;;;;;0.20;0.20;;;8.80;99.90;;;9.14;nan;99230.81;4988693;28;20669;-74
2022/04/08 03:11:17;;;;;;;0.20;0.20;;;8.80;99.90;;;9.24;nan;99231.69;4973959;28;20635;-73
2022/04/08 03:13:44;;;;;;;0.20;0.20;;;8.80;99.90;;;9.15;nan;99238.53;4974115;28;20661;-71
2022/04/08 03:16:11;;;;;;;0.20;0.20;;;8.80;99.90;;;9.13;nan;99245.63;5001234;28;20680;-70
2022/04/08 03:18:38;;;;;;;0.20;0.20;;;8.80;99.90;;;9.11;nan;99244.13;4991389;28;20631;-72
2022/04/08 03:21:05;;;;;;;0.20;0.20;;;8.80;99.90;;;9.12;nan;99257.00;4990613;28;20634;-71
2022/04/08 03:23:32;;;;;;;0.20;0.20;;;8.80;99.90;;;9.10;nan;99258.91;4990476;28;21197;-68
2022/04/08 03:25:59;;;;;;;0.20;0.20;;;8.70;99.90;;;9.08;nan;99249.59;4989389;28;20658;-71
2022/04/08 03:28:26;;;;;;;0.20;0.20;;;8.70;99.90;;;8.96;nan;99256.69;4990522;28;20642;-71
2022/04/08 03:30:53;;;;;;;0.20;0.20;;;8.60;99.90;;;9.01;nan;99251.06;4982012;28;20685;-74
2022/04/08 03:33:20;;;;;;;0.20;0.20;;;8.60;99.90;;;8.99;nan;99261.59;4985130;28;21064;-70
2022/04/08 03:35:47;;;;;;;0.20;0.20;;;8.60;99.90;;;9.06;nan;99259.31;4983829;28;20667;-71
2022/04/08 03:38:14;;;;;;;0.20;0.20;;;8.70;99.90;;;9.01;nan;99259.69;4989665;28;20641;-67
2022/04/08 03:40:41;;;;;;;0.20;0.20;;;8.60;99.90;;;9.00;nan;99258.06;4997929;28;20638;-72
2022/04/08 03:43:08;;;;;;;0.20;0.20;;;8.70;99.90;;;9.00;nan;99263.28;4993935;28;20638;-71
2022/04/08 03:45:35;;;;;;;0.20;0.20;;;8.60;99.90;;;9.00;nan;99262.44;4975963;28;21233;-71
2022/04/08 03:48:03;;;;;;;0.20;0.20;;;8.60;99.90;;;9.04;nan;99264.66;4994369;28;20646;-72
2022/04/08 03:50:30;;;;;;;0.20;0.20;;;8.70;99.90;;;9.08;nan;99262.59;4992639;28;20951;-72
2022/04/08 03:52:57;;;;;;;0.20;0.20;;;8.80;99.90;;;9.08;nan;99270.41;4992626;28;20700;-72
2022/04/08 03:55:24;;;;;;;0.20;0.20;;;8.80;99.90;;;8.91;nan;99269.25;4998070;28;20642;-71
2022/04/08 03:57:51;;;;;;;0.20;0.20;;;8.70;99.90;;;8.86;nan;99265.44;4993560;28;20634;-71
2022/04/08 04:00:18;;;;;;;0.20;0.20;;;8.60;99.90;;;8.88;nan;99272.13;4992496;28;20622;-69
2022/04/08 04:02:45;;;;;;;0.20;0.20;;;8.60;99.90;;;8.86;nan;99261.03;4976955;28;20619;-71
2022/04/08 04:05:12;;;;;;;0.20;0.20;;;8.50;99.90;;;8.93;nan;99271.72;4994096;28;20641;-70
2022/04/08 04:07:40;;;;;;;0.20;0.20;;;8.60;99.90;;;8.87;nan;99254.03;4977059;28;21014;-71
2022/04/08 04:10:07;;;;;;;0.20;0.20;;;8.50;99.90;;;8.93;nan;99262.16;4966169;28;21208;-73
2022/04/08 04:12:34;;;;;;;0.20;0.20;;;8.60;99.90;;;8.97;nan;99266.13;4998379;28;20627;-71
2022/04/08 04:15:03;;;;;;;0.20;0.20;;;8.60;99.90;;;8.90;nan;99252.00;4992426;28;20658;-71
2022/04/08 04:17:31;;;;;;;0.20;0.20;;;8.60;99.90;;;8.89;nan;99260.78;4989172;28;20659;-71
2022/04/08 04:19:57;;;;;;;0.20;0.20;;;8.50;99.90;;;8.87;nan;99265.28;4993815;28;21185;-71
2022/04/08 04:22:24;;;;;;;0.20;0.20;;;8.60;99.90;;;8.97;nan;99265.28;4976756;28;20630;-70
2022/04/08 04:24:51;;;;;;;0.30;0.30;;;8.60;99.90;;;9.10;nan;99268.47;4986680;28;21240;-74
2022/04/08 04:27:18;;;;;;;0.20;0.20;;;8.70;99.90;;;9.04;nan;99280.25;4991945;28;20716;-72
2022/04/08 04:29:45;;;;;;;0.20;0.20;;;8.70;99.90;;;9.02;nan;99286.53;4976097;28;20987;-71
2022/04/08 04:32:12;;;;;;;0.20;0.20;;;8.70;99.90;;;9.02;nan;99276.97;4989696;28;20697;-71
2022/04/08 04:34:40;;;;;;;0.20;0.20;;;8.70;99.90;;;9.08;nan;99280.81;4991508;28;20667;-72
2022/04/08 04:37:10;;;;;;;0.20;0.20;;;8.70;99.90;;;9.08;nan;99286.84;4993129;28;20661;-71
2022/04/08 04:39:37;;;;;;;0.20;0.20;;;8.80;99.90;;;9.08;nan;99286.84;4993331;28;20637;-71
2022/04/08 04:42:07;;;;;;;0.20;0.20;;;8.70;99.90;;;9.11;nan;99289.19;4993382;28;20645;-71
2022/04/08 04:44:34;;;;;;;0.20;0.20;;;8.80;99.90;;;9.09;nan;99285.84;4992748;28;20633;-71
2022/04/08 04:47:02;;;;;;;0.20;0.20;;;8.80;99.90;;;9.05;nan;99292.28;4993141;28;20754;-74
2022/04/08 04:49:29;;;;;;;0.20;0.20;;;8.70;99.90;;;9.07;nan;99287.78;4992202;28;20642;-71
2022/04/08 04:51:56;;;;;;;0.20;0.20;;;8.80;99.90;;;9.08;nan;99292.03;4994643;28;20677;-72
2022/04/08 04:54:23;;;;;;;0.20;0.20;;;8.80;99.90;;;9.08;nan;99299.84;4991603;28;20670;-67
2022/04/08 04:56:50;;;;;;;0.20;0.20;;;8.80;99.90;;;9.08;nan;99286.84;4963301;28;21024;-71
2022/04/08 04:59:17;;;;;;;0.20;0.20;;;8.80;99.90;;;9.08;nan;99288.59;4978548;28;20635;-67
2022/04/08 05:01:45;;;;;;;0.20;0.20;;;8.70;99.90;;;9.10;nan;99299.69;4971037;28;20635;-71
2022/04/08 05:04:12;;;;;;;0.20;0.20;;;8.80;99.90;;;9.03;nan;99298.59;4973136;28;20627;-75
2022/04/08 05:06:39;;;;;;;0.20;0.20;;;8.70;99.90;;;9.00;nan;99298.84;4990182;28;20671;-72
2022/04/08 05:09:06;;;;;;;0.20;0.20;;;8.70;99.90;;;8.98;nan;99295.56;4991211;28;20708;-72
2022/04/08 05:11:33;;;;;;;0.20;0.20;;;8.60;99.90;;;9.01;nan;99298.72;4989386;28;20634;-71
2022/04/08 05:14:00;;;;;;;0.20;0.20;;;8.70;99.90;;;9.08;nan;99299.84;4975081;28;20662;-72
2022/04/08 05:16:28;;;;;;;0.20;0.20;;;8.80;99.90;;;9.09;nan;99301.47;5011622;23;20687;-72
2022/04/08 05:18:56;;;;;;;0.20;0.20;;;8.70;99.90;;;9.10;nan;99308.34;4971839;28;20624;-72
2022/04/08 05:21:24;;;;;;;0.20;0.20;;;8.80;99.90;;;9.15;nan;99292.34;4959617;28;20642;-72
2022/04/08 05:23:51;;;;;;;0.20;0.20;;;8.90;99.90;;;9.12;nan;99287.38;4975551;28;20630;-72
2022/04/08 05:26:18;;;;;;;0.20;0.20;;;8.90;99.90;;;9.16;nan;99299.16;4953369;28;20671;-72
2022/04/08 05:28:46;;;;;;;0.20;0.20;;;8.90;99.90;;;9.19;nan;99302.34;4969655;28;20700;-72
2022/04/08 05:31:13;;;;;;;0.20;0.20;;;8.90;99.90;;;9.23;nan;99306.31;4952588;28;20639;-72
2022/04/08 05:33:42;;;;;;;0.30;0.30;;;8.90;99.90;;;9.32;nan;99305.53;4943068;28;20724;-70
2022/04/08 05:36:09;;;;;;;0.20;0.20;;;9.00;99.90;;;9.47;nan;99310.34;4970854;28;20650;-72
2022/04/08 05:38:36;;;;;;;0.20;0.20;;;9.20;99.90;;;9.50;nan;99304.88;4947263;28;20642;-72
2022/04/08 05:41:03;;;;;;;0.20;0.20;;;9.20;99.90;;;9.42;nan;99302.91;4970776;28;20626;-72
2022/04/08 05:43:30;;;;;;;0.20;0.20;;;9.20;99.90;;;9.48;nan;99304.16;4953535;29;20632;-72
2022/04/08 05:45:57;;;;;;;0.20;0.20;;;9.30;99.90;;;9.47;nan;99300.75;4952869;28;20632;-73
2022/04/08 05:48:24;;;;;;;0.20;0.20;;;9.20;99.90;;;9.54;nan;99301.03;4962241;28;21187;-72
2022/04/08 05:50:51;;;;;;;0.20;0.20;;;9.30;99.90;;;9.66;nan;99290.34;4972539;28;20619;-74
2022/04/08 05:53:18;;;;;;;0.20;0.20;;;9.40;99.90;;;9.73;nan;99288.03;4952197;28;20643;-73
2022/04/08 05:56:04;;;;;;;0.20;0.20;;;9.50;99.90;;;9.80;nan;99279.50;4952747;28;20659;-72
2022/04/08 05:58:32;;;;;;;0.20;0.20;;;9.60;99.90;;;9.82;nan;99285.41;4941222;29;20639;-73
2022/04/08 06:01:00;;;;;;;0.20;0.20;;;9.60;99.90;;;9.78;nan;99280.59;4953461;28;21207;-75
2022/04/08 06:03:27;;;;;;;0.20;0.20;;;9.60;99.90;;;9.79;nan;99287.47;4936558;28;20632;-71
2022/04/08 06:05:54;;;;;;;0.20;0.20;;;9.60;99.90;;;9.74;nan;99280.06;4953189;28;21286;-73
2022/04/08 06:08:22;;;;;;;0.20;0.20;;;9.50;99.90;;;9.68;nan;99279.78;4936331;29;20625;-75
2022/04/08 06:10:49;;;;;;;0.20;0.20;;;9.50;99.90;;;9.71;nan;99279.53;4963304;28;20642;-72
2022/04/08 06:13:17;;;;;;;0.20;0.20;;;9.50;99.90;;;9.63;nan;99281.97;4955366;28;20989;-72
2022/04/08 06:15:44;;;;;;;0.20;0.20;;;9.40;99.90;;;9.62;nan;99277.72;4971137;28;20687;-72
2022/04/08 06:18:13;;;;;;;0.20;0.20;;;9.40;99.90;;;9.65;nan;99285.25;4946919;28;20651;-72
2022/04/08 06:20:40;;;;;;;0.20;0.20;;;9.40;99.90;;;9.70;nan;99275.25;4946580;28;20643;-72
2022/04/08 06:23:07;;;;;;;0.20;0.20;;;9.40;99.90;;;9.61;nan;99287.31;4952136;29;20640;-72
2022/04/08 06:25:34;;;;;;;0.20;0.20;;;9.40;99.90;;;9.78;nan;99283.19;4953194;28;20690;-75
2022/04/08 06:28:04;;;;;;;0.20;0.20;;;9.50;99.90;;;9.83;nan;99279.25;4964043;28;20643;-68
2022/04/08 06:30:36;;;;;;;0.20;0.20;;;9.50;99.90;;;9.80;nan;99278.69;4944897;29;20635;-70
2022/04/08 06:33:05;;;;;;;0.20;0.20;;;9.50;99.90;;;9.75;nan;99284.28;4931389;28;20635;-70
2022/04/08 06:35:33;;;;;;;0.20;0.20;;;9.50;99.90;;;9.76;nan;99275.53;4952976;28;21216;-70
2022/04/08 06:38:05;;;;;;;0.20;0.20;;;9.60;99.90;;;9.79;nan;99270.06;4961661;28;21186;-74
2022/04/08 06:40:39;;;;;;;0.20;0.20;;;9.70;99.90;;;10.01;nan;99272.34;4948392;28;20647;-71
2022/04/08 06:43:08;;;;;;;0.20;0.20;;;9.80;99.90;;;10.13;nan;99271.28;4954233;28;20817;-72
2022/04/08 06:45:35;;;;;;;0.20;0.20;;;9.90;99.90;;;10.28;nan;99260.41;4942123;28;20664;-71
2022/04/08 06:48:03;;;;;;;0.20;0.20;;;10.10;99.90;;;10.40;nan;99243.63;4954047;28;20651;-72
2022/04/08 06:50:30;;;;;;;0.20;0.20;;;10.30;99.90;;;10.61;nan;99239.84;4959553;28;20688;-71
2022/04/08 06:53:00;;;;;;;0.20;0.20;;;10.60;99.90;;;10.80;nan;99231.09;4950075;28;20697;-72
2022/04/08 06:55:29;;;;;;;0.20;0.20;;;10.80;99.90;;;11.04;nan;99235.75;4947177;29;20671;-72
2022/04/08 06:58:03;;;;;;;0.20;0.20;;;11.00;99.90;;;11.14;nan;99220.88;4942521;28;21205;-75
2022/04/08 07:00:34;;;;;;;0.20;0.20;;;11.10;99.90;;;11.20;nan;99222.91;4936270;28;20638;-73
2022/04/08 07:03:01;;;;;;;0.20;0.20;;;11.10;99.90;;;11.09;nan;99221.31;4963049;28;20643;-73
2022/04/08 07:05:29;;;;;;;0.20;0.20;;;11.20;99.90;;;11.17;nan;99217.97;4966179;28;21211;-69
2022/04/08 07:07:57;;;;;;;0.20;0.20;;;11.10;99.90;;;11.15;nan;99217.28;4959402;28;20631;-71
2022/04/08 07:10:24;;;;;;;0.20;0.20;;;11.00;99.90;;;10.84;nan;99206.34;4959809;28;20622;-73
2022/04/08 07:12:51;;;;;;;0.20;0.20;;;10.90;99.90;;;10.93;nan;99202.88;4964010;28;21034;-72
2022/04/08 07:15:18;;;;;;;0.20;0.20;;;10.80;99.90;;;10.97;nan;99203.41;4939378;28;20656;-72
2022/04/08 07:17:46;;;;;;;2.00;1.90;;;10.80;99.90;;;10.91;nan;99203.03;4968072;28;20636;-72
2022/04/08 07:20:16;;;;;;;0.20;0.20;;;10.80;99.90;;;10.85;nan;99195.78;4960632;28;20624;-68
2022/04/08 07:22:44;;;;;;;0.20;0.20;;;10.70;99.90;;;10.83;nan;99202.09;4969109;28;20641;-72
2022/04/08 07:25:12;;;;;;;0.20;0.20;;;10.70;99.90;;;10.90;nan;99193.53;4950390;28;21188;-70
2022/04/08 07:27:46;;;;;;;0.20;0.20;;;10.70;99.90;;;10.99;nan;99191.03;4961167;28;20642;-71
2022/04/08 07:30:17;;;;;;;0.20;0.20;;;10.80;99.90;;;11.01;nan;99183.88;4951983;28;20638;-73
2022/04/08 07:32:46;;;;;;;0.30;0.30;;;10.90;99.90;;;10.96;nan;99186.94;4954835;28;25017;-72
2022/04/08 07:35:13;;;;;;;0.20;0.20;;;10.80;99.90;;;10.96;nan;99179.09;4952958;28;20224;-73
2022/04/08 07:37:40;;;;;;;0.20;0.20;;;10.80;99.90;;;11.00;nan;99182.22;4965220;28;20639;-72
2022/04/08 07:40:10;;;;;;;0.20;0.20;;;10.80;99.90;;;10.96;nan;99183.50;4945617;28;21201;-70
2022/04/08 07:42:39;;;;;;;0.20;0.20;;;10.80;99.90;;;10.96;nan;99180.88;4952362;28;21225;-71
2022/04/08 07:45:07;;;;;;;0.20;0.20;;;10.80;99.90;;;10.99;nan;99180.59;4936780;28;20644;-72
2022/04/08 07:47:35;;;;;;;0.20;0.20;;;10.90;99.90;;;10.97;nan;99178.13;4958279;28;20667;-71
2022/04/08 07:50:14;;;;;;;0.20;0.20;;;10.80;99.90;;;11.08;nan;99169.25;4959953;28;21027;-73
2022/04/08 07:52:42;;;;;;;0.20;0.20;;;10.90;99.90;;;11.00;nan;99167.41;4961742;28;20643;-72
2022/04/08 07:55:11;;;;;;;0.20;0.20;;;10.80;99.90;;;10.99;nan;99163.13;4956298;28;21320;-70
2022/04/08 07:57:46;;;;;;;0.20;0.20;;;10.80;99.90;;;11.06;nan;99158.13;4940042;28;20638;-74
2022/04/08 08:00:19;;;;;;;0.20;0.20;;;10.90;99.90;;;11.02;nan;99156.78;4972175;28;20643;-68
2022/04/08 08:02:47;;;;;;;0.20;0.20;;;10.80;99.90;;;11.01;nan;99157.78;4940354;28;21018;-74
2022/04/08 08:05:15;;;;;;;0.20;0.20;;;10.80;99.90;;;11.02;nan;99151.56;4958596;28;20635;-71
2022/04/08 08:07:55;;;;;;;0.30;0.30;;;10.80;99.90;;;10.76;nan;99149.69;4962407;28;21069;-71
2022/04/08 08:10:25;;;;;;;0.20;0.20;;;10.60;99.90;;;10.73;nan;99152.59;4947495;28;20639;-71
2022/04/08 08:12:54;;;;;;;0.20;0.20;;;10.60;99.90;;;10.85;nan;99158.44;4922011;29;20765;-71
2022/04/08 08:15:22;;;;;;;0.20;0.20;;;10.60;99.90;;;10.78;nan;99147.75;4935318;28;21028;-72
2022/04/08 08:17:51;;;;;;;0.20;0.20;;;10.60;99.90;;;10.87;nan;99141.66;4954607;29;20624;-72
2022/04/08 08:20:20;;;;;;;0.20;0.20;;;10.70;99.90;;;10.98;nan;99138.00;4963895;28;21225;-70
2022/04/08 08:22:49;;;;;;;0.20;0.20;;;10.80;99.90;;;11.03;nan;99143.59;4938373;28;20631;-71
2022/04/08 08:25:17;;;;;;;0.20;0.20;;;10.80;99.90;;;11.07;nan;99141.53;4954266;28;20639;-73
2022/04/08 08:27:52;;;;;;;0.20;0.20;;;10.80;99.90;;;11.04;nan;99141.81;4954877;28;21066;-71
2022/04/08 08:30:20;;;;;;;0.20;0.20;;;10.80;99.90;;;11.05;nan;99135.63;4953175;28;20631;-67
2022/04/08 08:32:49;;;;;;;0.20;0.20;;;10.80;99.90;;;11.08;nan;99138.75;4948140;28;20628;-72
2022/04/08 08:35:17;;;;;;;0.20;0.20;;;10.90;99.90;;;10.99;nan;99129.19;4938897;28;21207;-71
2022/04/08 08:37:46;;;;;;;0.20;0.20;;;10.80;99.90;;;10.85;nan;99130.56;4960858;28;20636;-72
2022/04/08 08:40:15;;;;;;;0.20;0.20;;;10.80;99.90;;;10.91;nan;99121.31;4936634;28;20824;-71
2022/04/08 08:42:42;;;;;;;0.20;0.20;;;10.80;99.90;;;11.08;nan;99127.50;4937153;29;20667;-71
2022/04/08 08:45:11;;;;;;;0.20;0.20;;;10.90;99.90;;;11.13;nan;99127.88;4954389;28;20655;-73
2022/04/08 08:47:39;;;;;;;0.20;0.20;;;10.90;99.90;;;11.09;nan;99126.53;4937500;28;20643;-71
2022/04/08 08:50:07;;;;;;;0.20;0.20;;;10.90;99.90;;;11.08;nan;99117.88;4936645;28;20635;-72
2022/04/08 08:52:34;;;;;;;0.20;0.20;;;11.00;99.90;;;11.04;nan;99126.16;4964912;28;20633;-71
2022/04/08 08:55:06;;;;;;;0.20;0.20;;;10.90;99.90;;;11.16;nan;99120.56;4958379;28;20668;-72
2022/04/08 08:57:34;;;;;;;0.20;0.20;;;10.90;99.90;;;11.13;nan;99109.59;4937926;29;20664;-71
2022/04/08 09:00:15;;;;;;;0.30;0.30;;;10.90;99.90;;;11.25;nan;99109.22;4950594;28;20623;-71
2022/04/08 09:02:48;;;;;;;0.20;0.20;;;11.00;99.90;;;11.18;nan;99102.16;4939930;28;20644;-72
2022/04/08 09:05:22;;;;;;;0.20;0.20;;;11.00;99.90;;;11.24;nan;99104.16;4952324;28;21044;-71
2022/04/08 09:08:02;;;;;;;0.20;0.20;;;11.00;99.90;;;11.27;nan;99101.22;4941508;28;20631;-71
2022/04/08 09:10:34;;;;;;;0.20;0.20;;;11.10;99.90;;;11.24;nan;99096.31;4950443;28;20639;-71
2022/04/08 09:13:05;;;;;;;0.20;0.20;;;11.00;99.90;;;11.27;nan;99090.78;4944065;28;20631;-72
2022/04/08 09:15:34;;;;;;;0.20;0.20;;;11.10;99.90;;;11.28;nan;99095.88;4955435;28;20673;-71
2022/04/08 09:18:19;;;;;;;0.20;0.20;;;11.10;99.90;;;11.22;nan;99095.66;4963971;28;20637;-71
2022/04/08 09:20:51;;;;;;;0.20;0.20;;;11.00;99.90;;;10.81;nan;99089.25;4946253;28;20635;-73
2022/04/08 09:23:19;;;;;;;0.20;0.20;;;10.70;99.90;;;10.74;nan;99086.41;4935920;29;20639;-72
2022/04/08 09:25:49;;;;;;;0.20;0.20;;;10.60;99.90;;;10.29;nan;99088.22;4944687;28;20687;-71
2022/04/08 09:28:17;;;;;;;0.20;0.20;;;10.30;99.90;;;10.46;nan;99079.59;4970717;28;20702;-66
2022/04/08 09:30:49;;;;;;;0.20;0.20;;;10.30;99.90;;;10.30;nan;99082.03;4953400;28;20638;-72
2022/04/08 09:33:19;;;;;;;0.20;0.20;;;10.20;99.90;;;9.88;nan;99073.03;4950115;28;20636;-71
2022/04/08 09:35:48;;;;;;;0.20;0.20;;;9.90;99.90;;;9.72;nan;99078.84;4963861;28;20730;-73
2022/04/08 09:38:34;;;;;;;0.20;0.20;;;9.60;99.90;;;9.65;nan;99067.34;4953666;28;20639;-68
2022/04/08 09:41:04;;;;;;;0.20;0.20;;;9.40;99.90;;;9.75;nan;99052.50;4953838;28;20642;-70
2022/04/08 09:43:33;;;;;;;0.20;0.20;;;9.50;99.90;;;9.71;nan;99045.94;4971075;28;20647;-73
2022/04/08 09:46:27;;;;;;;0.20;0.20;;;9.50;99.90;;;9.71;nan;99043.31;4935772;28;20688;-67
2022/04/08 09:48:54;;;;;;;0.30;0.30;;;9.50;99.90;;;9.80;nan;99044.25;4956484;28;20643;-74
2022/04/08 09:51:21;;;;;;;0.20;0.20;;;9.60;99.90;;;9.81;nan;99033.72;4954292;28;20635;-73
2022/04/08 09:54:00;;;;;;;0.20;0.20;;;9.60;99.90;;;9.70;nan;99028.69;4967755;28;20635;-73
2022/04/08 09:56:29;;;;;;;0.70;0.70;;;9.60;99.90;;;9.81;nan;99030.28;4929553;28;20682;-71
2022/04/08 09:59:08;;;;;;;0.20;0.20;;;9.60;99.90;;;9.75;nan;99026.44;4972619;28;20627;-74
2022/04/08 10:01:37;;;;;;;0.20;0.20;;;9.60;99.90;;;9.84;nan;99030.81;4964379;28;20642;-73
2022/04/08 10:04:06;;;;;;;0.20;0.20;;;9.70;99.90;;;9.93;nan;99014.31;4949269;28;20631;-73
2022/04/08 10:06:38;;;;;;;0.20;0.20;;;9.80;99.90;;;9.90;nan;99013.78;4950556;28;20663;-75
2022/04/08 10:09:09;;;;;;;0.20;0.20;;;9.70;99.90;;;9.89;nan;99012.97;4939444;28;20643;-73
2022/04/08 10:11:59;;;;;;;0.20;0.20;;;9.80;99.90;;;9.74;nan;99005.78;4945381;28;21249;-73
2022/04/08 10:15:13;;;;;;;0.40;0.40;;;9.60;99.90;;;9.39;nan;98988.25;4945012;28;21218;-73
2022/04/08 10:17:40;;;;;;;0.20;0.20;;;9.30;99.90;;;9.32;nan;98981.97;4956277;28;20713;-73
2022/04/08 10:20:20;;;;;;;0.67;0.67;;;9.20;99.90;;;9.30;nan;98976.91;4935254;28;20632;-74
2022/04/08 10:22:48;;;;;;;0.20;0.20;;;9.10;99.90;;;9.25;nan;98968.69;4964978;28;20651;-72
2022/04/08 10:25:18;;;;;;;0.20;0.20;;;9.00;99.90;;;9.27;nan;98963.34;4950235;28;21250;-70
2022/04/08 10:27:45;;;;;;;0.20;0.20;;;9.10;99.90;;;9.21;nan;98963.91;4945183;28;20687;-70
2022/04/08 10:30:15;;;;;;;0.20;0.20;;;9.00;99.90;;;9.12;nan;98951.75;4942196;28;20644;-70
2022/04/08 10:32:43;;;;;;;0.20;0.20;;;9.00;99.90;;;9.18;nan;98948.56;4958070;28;21323;-71
2022/04/08 10:35:19;;;;;;;0.20;0.20;;;9.00;99.90;;;9.15;nan;98935.88;4941726;28;21057;-73
2022/04/08 10:38:03;;;;;;;0.20;0.20;;;9.00;99.90;;;8.91;nan;98936.34;4953875;28;21163;-71
2022/04/08 10:40:37;;;;;;;0.20;0.20;;;8.90;99.90;;;8.69;nan;98936.66;4951051;28;20631;-70
2022/04/08 10:43:07;;;;;;;0.20;0.20;;;8.80;99.90;;;8.71;nan;98939.13;4949501;28;20627;-72
2022/04/08 10:45:36;;;;;;;0.20;0.20;;;8.60;99.90;;;8.78;nan;98945.38;4949596;28;20675;-70
2022/04/08 10:48:09;;;;;;;0.20;0.20;;;8.60;99.90;;;8.77;nan;98942.00;4934791;28;20636;-70
2022/04/08 10:50:38;;;;;;;0.40;0.40;;;8.60;99.90;;;8.79;nan;98947.88;4959790;28;20662;-71
2022/04/08 10:53:12;;;;;;;0.20;0.20;;;8.60;99.90;;;8.68;nan;98947.19;4953143;28;21205;-70